Time;durP1;ratioP1;P1;durP2;ratioP2;P2;SDS_P1;SDS_P2;PMS_P1;PMS_P2;Temp;Humidity;BMP_temperature;BMP_pressure;BME280_temperature;BME280_humidity;BME280_pressure;Samples;Min_cycle;Max_cycle;Signal;HPM_P1;HPM_P2
2021/11/09 00:01:12;;;;;;;11.85;7.55;;;5.50;99.90;;;;;;5052011;28;20258;-61
2021/11/09 00:03:47;;;;;;;15.45;8.75;;;5.50;99.90;;;;;;5058654;28;20234;-60
2021/11/09 00:06:23;;;;;;;14.30;8.48;;;5.60;99.90;;;;;;5056238;28;20224;-61
2021/11/09 00:08:56;;;;;;;18.85;9.77;;;5.70;99.90;;;;;;5052950;28;20215;-61
2021/11/09 00:11:25;;;;;;;17.00;8.80;;;5.70;99.90;;;;;;5051727;28;20666;-61
2021/11/09 00:13:53;;;;;;;18.95;10.20;;;5.70;99.90;;;;;;5052452;28;20598;-61
2021/11/09 00:16:22;;;;;;;16.65;8.88;;;5.70;99.90;;;;;;5052708;28;20213;-61
2021/11/09 00:18:51;;;;;;;16.65;9.80;;;5.70;99.90;;;;;;5052011;28;20216;-60
2021/11/09 00:21:21;;;;;;;16.40;8.57;;;5.70;99.90;;;;;;5072609;28;20724;-61
2021/11/09 00:23:49;;;;;;;14.88;8.80;;;5.70;99.90;;;;;;5072215;28;20721;-61
2021/11/09 00:26:18;;;;;;;15.73;8.45;;;5.70;99.90;;;;;;5064259;28;20219;-60
2021/11/09 00:28:47;;;;;;;16.30;9.98;;;5.70;99.90;;;;;;5052187;28;20220;-61
2021/11/09 00:31:15;;;;;;;17.83;7.63;;;5.70;99.90;;;;;;5063237;28;20282;-61
2021/11/09 00:33:44;;;;;;;18.08;8.52;;;5.70;99.90;;;;;;5068852;28;20728;-61
2021/11/09 00:36:12;;;;;;;14.13;8.43;;;5.70;99.90;;;;;;5053950;28;20208;-60
2021/11/09 00:38:42;;;;;;;14.60;8.80;;;5.70;99.90;;;;;;5072050;28;20215;-60
2021/11/09 00:41:10;;;;;;;16.55;7.95;;;5.70;99.90;;;;;;5071112;28;20191;-60
2021/11/09 00:43:39;;;;;;;20.50;10.00;;;5.60;99.90;;;;;;5071893;28;20717;-61
2021/11/09 00:46:07;;;;;;;18.75;8.23;;;5.60;99.90;;;;;;5070659;28;20222;-60
2021/11/09 00:48:35;;;;;;;13.05;7.88;;;5.50;99.90;;;;;;5071685;28;20214;-60
2021/11/09 00:51:04;;;;;;;18.73;8.55;;;5.50;99.90;;;;;;5061158;28;20199;-61
2021/11/09 00:53:32;;;;;;;16.92;8.52;;;5.50;99.90;;;;;;5051756;28;20304;-60
2021/11/09 00:56:02;;;;;;;21.48;9.38;;;5.50;99.90;;;;;;5051999;28;20208;-61
2021/11/09 00:58:30;;;;;;;17.98;7.72;;;5.50;99.90;;;;;;5051549;28;20228;-59
2021/11/09 01:00:58;;;;;;;11.27;7.95;;;5.40;99.90;;;;;;5052188;28;20188;-61
2021/11/09 01:03:26;;;;;;;14.63;7.82;;;5.40;99.90;;;;;;5051405;28;20216;-61
2021/11/09 01:05:54;;;;;;;18.08;8.00;;;5.40;99.90;;;;;;5067030;28;20219;-62
2021/11/09 01:08:23;;;;;;;16.00;7.93;;;5.40;99.90;;;;;;5071251;28;20184;-61
2021/11/09 01:10:54;;;;;;;13.85;7.53;;;5.40;99.90;;;;;;5067271;28;20184;-60
2021/11/09 01:13:26;;;;;;;12.85;7.50;;;5.40;99.90;;;;;;5051275;28;20286;-61
2021/11/09 01:15:56;;;;;;;16.50;7.55;;;5.40;99.90;;;;;;5051828;28;20218;-60
2021/11/09 01:18:27;;;;;;;13.60;7.10;;;5.40;99.90;;;;;;5051336;28;20307;-60
2021/11/09 01:20:56;;;;;;;16.67;8.55;;;5.40;99.90;;;;;;5052024;28;20201;-61
2021/11/09 01:23:25;;;;;;;24.00;9.55;;;5.40;99.90;;;;;;5051166;28;20220;-61
2021/11/09 01:25:54;;;;;;;15.90;6.88;;;5.30;99.90;;;;;;5057152;28;20223;-60
2021/11/09 01:28:24;;;;;;;12.82;7.53;;;5.30;99.90;;;;;;5051215;28;20283;-60
2021/11/09 01:30:53;;;;;;;17.75;7.43;;;5.30;99.90;;;;;;5052022;28;20193;-61
2021/11/09 01:33:22;;;;;;;11.05;6.55;;;;;;;;;;5051085;28;20257;-60
2021/11/09 01:35:50;;;;;;;13.57;7.38;;;;;;;;;;5051436;28;20589;-61
2021/11/09 01:38:19;;;;;;;15.48;8.45;;;5.20;99.90;;;;;;5051452;28;20211;-60
2021/11/09 01:40:47;;;;;;;13.90;7.63;;;5.10;99.90;;;;;;5053958;28;20226;-61
2021/11/09 01:43:17;;;;;;;12.60;6.85;;;5.10;99.90;;;;;;5071261;28;20183;-61
2021/11/09 01:45:48;;;;;;;12.10;7.20;;;5.10;99.90;;;;;;5071411;28;20227;-61
2021/11/09 01:48:17;;;;;;;12.45;7.35;;;5.10;99.90;;;;;;5071187;28;20191;-61
2021/11/09 01:50:49;;;;;;;14.00;6.55;;;5.10;99.90;;;;;;5066487;28;20192;-61
2021/11/09 01:53:17;;;;;;;11.07;7.20;;;5.00;99.90;;;;;;5051063;28;20242;-61
2021/11/09 01:55:46;;;;;;;8.23;6.97;;;5.10;99.90;;;;;;5050905;28;20571;-60
2021/11/09 01:58:17;;;;;;;22.85;8.32;;;5.00;99.90;;;;;;5051139;28;20196;-61
2021/11/09 02:00:48;;;;;;;13.40;6.93;;;5.00;99.90;;;;;;5051493;28;20219;-61
2021/11/09 02:03:18;;;;;;;16.55;9.07;;;4.90;99.90;;;;;;5051183;28;20194;-61
2021/11/09 02:05:49;;;;;;;10.93;6.72;;;4.90;99.90;;;;;;5051374;28;20552;-61
2021/11/09 02:08:18;;;;;;;9.82;5.85;;;4.90;99.90;;;;;;5051173;28;20199;-61
2021/11/09 02:10:48;;;;;;;9.68;6.32;;;4.90;99.90;;;;;;5051536;28;20723;-61
2021/11/09 02:13:17;;;;;;;14.93;7.53;;;4.90;99.90;;;;;;5050940;28;20600;-61
2021/11/09 02:15:46;;;;;;;11.73;6.82;;;4.90;99.90;;;;;;5050756;28;20248;-60
2021/11/09 02:18:16;;;;;;;15.52;6.60;;;4.90;99.90;;;;;;5049694;28;20200;-60
2021/11/09 02:20:53;;;;;;;12.82;6.82;;;5.00;99.90;;;;;;5055382;28;20658;-61
2021/11/09 02:23:21;;;;;;;12.98;7.50;;;5.00;99.90;;;;;;5036779;28;20199;-61
2021/11/09 02:25:49;;;;;;;14.45;7.30;;;5.00;99.90;;;;;;5061560;28;20204;-60
2021/11/09 02:28:17;;;;;;;19.92;8.68;;;5.00;99.90;;;;;;5073319;28;20196;-61
2021/11/09 02:30:46;;;;;;;17.73;7.80;;;5.00;99.90;;;;;;5074746;28;20726;-61
2021/11/09 02:33:15;;;;;;;16.52;7.70;;;4.90;99.90;;;;;;5071112;28;20200;-61
2021/11/09 02:35:44;;;;;;;15.57;7.80;;;4.80;99.90;;;;;;5054419;28;20235;-60
2021/11/09 02:38:14;;;;;;;11.80;7.45;;;4.80;99.90;;;;;;5054379;28;20193;-60
2021/11/09 02:40:43;;;;;;;10.13;7.93;;;4.80;99.90;;;;;;5054895;28;20310;-60
2021/11/09 02:43:14;;;;;;;15.65;7.97;;;4.80;99.90;;;;;;5054462;28;20188;-60
2021/11/09 02:45:49;;;;;;;20.17;7.43;;;4.70;99.90;;;;;;5054380;28;20208;-61
2021/11/09 02:48:21;;;;;;;12.48;7.38;;;4.90;99.90;;;;;;5054186;28;20612;-60
2021/11/09 02:50:53;;;;;;;14.98;6.70;;;4.90;99.90;;;;;;5054629;28;20189;-60
2021/11/09 02:53:32;;;;;;;15.60;8.30;;;4.90;99.90;;;;;;5053848;28;20197;-60
2021/11/09 02:56:05;;;;;;;20.30;9.30;;;4.90;99.90;;;;;;5054290;28;20223;-60
2021/11/09 02:58:44;;;;;;;15.15;7.07;;;4.80;99.90;;;;;;5053833;28;20232;-61
2021/11/09 03:01:17;;;;;;;15.48;7.05;;;4.80;99.90;;;;;;5054392;28;20184;-61
2021/11/09 03:03:53;;;;;;;13.02;6.40;;;4.70;99.90;;;;;;5053941;28;20634;-61
2021/11/09 03:06:27;;;;;;;11.55;5.22;;;;;;;;;;5054136;28;20222;-61
2021/11/09 03:09:02;;;;;;;14.32;6.90;;;4.60;99.90;;;;;;5053856;28;20231;-60
2021/11/09 03:11:31;;;;;;;10.18;5.90;;;4.50;99.90;;;;;;5054278;28;20199;-61
2021/11/09 03:13:59;;;;;;;11.45;5.60;;;4.50;99.90;;;;;;5054711;28;20228;-60
2021/11/09 03:16:31;;;;;;;11.55;5.30;;;;;;;;;;5071845;28;20208;-60
2021/11/09 03:19:06;;;;;;;10.63;6.15;;;4.40;99.90;;;;;;5068397;28;20266;-61
2021/11/09 03:46:59;;;;;;;9.68;6.35;;;3.90;99.90;;;;;;5053523;28;20216;-60
2021/11/09 03:49:33;;;;;;;10.75;4.60;;;4.00;99.90;;;;;;5052510;28;20724;-61
2021/11/09 03:52:07;;;;;;;9.32;4.80;;;3.90;99.90;;;;;;5052435;28;20286;-61
2021/11/09 03:54:36;;;;;;;10.45;5.57;;;3.90;99.90;;;;;;5052156;28;20220;-61
2021/11/09 03:57:09;;;;;;;6.32;4.60;;;4.00;99.90;;;;;;5053563;28;20192;-61
2021/11/09 03:59:48;;;;;;;8.32;4.78;;;4.00;99.90;;;;;;5052729;28;20220;-60
2021/11/09 04:02:24;;;;;;;14.68;6.07;;;4.00;99.90;;;;;;5053967;28;20237;-61
2021/11/09 04:04:55;;;;;;;31.08;13.90;;;4.00;99.90;;;;;;5069477;28;20328;-61
2021/11/09 04:07:29;;;;;;;49.53;21.88;;;3.90;99.90;;;;;;5073255;28;20203;-61
2021/11/09 04:18:34;;;;;;;6.10;4.65;;;4.10;99.90;;;;;;4990600;28;20286;-61
2021/11/09 04:21:13;;;;;;;10.65;6.00;;;4.10;99.90;;;;;;5041894;28;20192;-60
2021/11/09 04:29:34;;;;;;;10.15;5.90;;;4.00;99.90;;;;;;5052336;28;20376;-61
2021/11/09 04:52:24;;;;;;;8.07;5.20;;;3.80;99.90;;;;;;5046045;28;20203;-61
2021/11/09 05:09:08;;;;;;;9.55;5.43;;;3.70;99.90;;;;;;5088250;27;20630;-60
2021/11/09 05:11:38;;;;;;;8.40;5.28;;;3.70;99.90;;;;;;5089066;28;20213;-61
2021/11/09 05:14:08;;;;;;;8.02;5.28;;;3.70;99.90;;;;;;5090537;27;20688;-61
2021/11/09 05:16:40;;;;;;;10.60;6.82;;;3.80;99.90;;;;;;5088649;28;20688;-60
2021/11/09 05:19:08;;;;;;;13.27;6.40;;;3.80;99.90;;;;;;5087758;27;20223;-60
2021/11/09 05:21:38;;;;;;;14.65;6.55;;;3.90;99.90;;;;;;5088815;28;20227;-61
2021/11/09 05:24:07;;;;;;;15.48;6.63;;;4.00;99.90;;;;;;5087768;28;20718;-61
2021/11/09 05:26:37;;;;;;;10.00;5.82;;;4.00;99.90;;;;;;5094424;28;20298;-61
2021/11/09 05:29:06;;;;;;;9.43;5.18;;;4.00;99.90;;;;;;5088011;28;20219;-61
2021/11/09 05:31:34;;;;;;;11.90;5.80;;;4.00;99.90;;;;;;5088448;28;20218;-60
2021/11/09 05:34:05;;;;;;;6.80;5.00;;;4.00;99.90;;;;;;5087467;27;20223;-60
2021/11/09 05:36:35;;;;;;;7.80;6.38;;;3.90;99.90;;;;;;5088601;28;20753;-61
2021/11/09 05:39:11;;;;;;;9.35;5.65;;;4.00;99.90;;;;;;5087777;28;20264;-60
2021/11/09 05:41:41;;;;;;;13.88;4.82;;;4.20;99.90;;;;;;5088195;28;20207;-60
2021/11/09 05:44:09;;;;;;;12.55;4.80;;;4.20;99.90;;;;;;5087349;28;20226;-60
2021/11/09 05:46:39;;;;;;;5.43;4.07;;;4.20;99.90;;;;;;5088411;28;20215;-60
2021/11/09 05:49:09;;;;;;;7.18;4.55;;;4.20;99.90;;;;;;5087753;28;20219;-61
2021/11/09 05:51:37;;;;;;;10.43;4.57;;;4.10;99.90;;;;;;5087965;28;20807;-60
2021/11/09 05:54:06;;;;;;;12.65;4.82;;;4.20;99.90;;;;;;5077874;28;20708;-60
2021/11/09 05:56:34;;;;;;;11.30;3.88;;;4.10;99.90;;;;;;5074517;28;20608;-61
2021/11/09 05:59:04;;;;;;;9.57;4.22;;;4.10;99.90;;;;;;5073955;28;20242;-61
2021/11/09 06:01:32;;;;;;;9.43;3.80;;;4.10;99.90;;;;;;5074711;28;20192;-60
2021/11/09 06:04:01;;;;;;;12.48;5.18;;;4.00;99.90;;;;;;5073796;28;20222;-60
2021/11/09 06:06:30;;;;;;;8.40;4.40;;;4.00;99.90;;;;;;5074441;28;20216;-60
2021/11/09 06:08:58;;;;;;;13.25;4.63;;;4.00;99.90;;;;;;5073700;28;20227;-60
2021/11/09 06:11:26;;;;;;;9.02;6.07;;;4.00;99.90;;;;;;5074161;28;20279;-61
2021/11/09 06:13:54;;;;;;;9.18;4.70;;;3.90;99.90;;;;;;5073609;28;20211;-60
2021/11/09 06:16:23;;;;;;;8.02;4.15;;;3.90;99.90;;;;;;5073862;28;20628;-61
2021/11/09 06:18:51;;;;;;;8.73;4.28;;;3.90;99.90;;;;;;5073923;28;20547;-60
2021/11/09 06:21:19;;;;;;;6.80;4.80;;;3.90;99.90;;;;;;5074337;28;20191;-61
2021/11/09 06:23:50;;;;;;;6.70;4.55;;;4.00;99.90;;;;;;5073456;28;20298;-61
2021/11/09 06:26:18;;;;;;;6.78;5.18;;;4.00;99.90;;;;;;5079385;28;20215;-60
2021/11/09 06:28:46;;;;;;;10.38;4.38;;;4.10;99.90;;;;;;5073490;28;20215;-60
2021/11/09 06:31:15;;;;;;;4.78;3.83;;;4.10;99.90;;;;;;5074014;28;20188;-61
2021/11/09 06:33:43;;;;;;;12.32;4.00;;;4.10;99.90;;;;;;5072973;28;20223;-60
2021/11/09 06:36:12;;;;;;;6.22;4.82;;;4.10;99.90;;;;;;5073625;28;20608;-60
2021/11/09 06:38:40;;;;;;;11.32;4.82;;;4.10;99.90;;;;;;5076606;28;20561;-61
2021/11/09 06:41:09;;;;;;;12.55;4.50;;;4.10;99.90;;;;;;5090478;28;20198;-61
2021/11/09 06:43:37;;;;;;;8.15;5.30;;;4.00;99.90;;;;;;5088340;28;20281;-60
2021/11/09 06:46:06;;;;;;;7.32;4.45;;;4.00;99.90;;;;;;5073314;28;20211;-60
2021/11/09 06:48:34;;;;;;;9.63;4.15;;;4.00;99.90;;;;;;5077589;28;20211;-60
2021/11/09 06:51:03;;;;;;;5.50;4.40;;;4.00;99.90;;;;;;5079882;28;20275;-61
2021/11/09 06:53:31;;;;;;;6.82;4.35;;;4.00;99.90;;;;;;5072904;28;20758;-60
2021/11/09 06:55:59;;;;;;;8.27;4.30;;;4.00;99.90;;;;;;5071857;28;20200;-60
2021/11/09 06:58:29;;;;;;;10.52;4.65;;;4.00;99.90;;;;;;5073220;28;20211;-61
2021/11/09 07:00:57;;;;;;;9.02;4.35;;;4.00;99.90;;;;;;5073393;28;20184;-60
2021/11/09 07:03:26;;;;;;;7.55;3.95;;;4.00;99.90;;;;;;5072892;28;20615;-61
2021/11/09 07:05:54;;;;;;;8.77;3.97;;;4.00;99.90;;;;;;5072046;28;20284;-61
2021/11/09 07:08:22;;;;;;;7.00;3.50;;;3.90;99.90;;;;;;5073808;27;20191;-61
2021/11/09 07:10:50;;;;;;;6.93;3.97;;;3.90;99.90;;;;;;5072815;28;20196;-61
2021/11/09 07:13:20;;;;;;;5.82;3.63;;;4.00;99.90;;;;;;5072517;28;20276;-60
2021/11/09 07:15:49;;;;;;;11.48;5.05;;;4.00;99.90;;;;;;5071599;28;20269;-61
2021/11/09 07:18:18;;;;;;;8.20;3.47;;;4.00;99.90;;;;;;5073482;28;20229;-61
2021/11/09 07:20:46;;;;;;;6.97;3.65;;;4.10;99.90;;;;;;5083955;28;20652;-60
2021/11/09 07:23:14;;;;;;;6.93;4.80;;;4.10;99.90;;;;;;5090737;28;20577;-60
2021/11/09 07:25:43;;;;;;;6.70;3.83;;;4.10;99.90;;;;;;5082719;28;20274;-60
2021/11/09 07:28:11;;;;;;;7.30;3.47;;;4.20;99.90;;;;;;5054972;28;20220;-61
2021/11/09 07:30:43;;;;;;;5.72;4.15;;;4.20;99.90;;;;;;5075121;28;20200;-61
2021/11/09 07:33:13;;;;;;;6.82;3.75;;;4.20;99.90;;;;;;5070155;28;20232;-60
2021/11/09 07:35:44;;;;;;;5.88;3.72;;;4.30;99.90;;;;;;5062848;28;20238;-61
2021/11/09 07:38:12;;;;;;;9.10;3.75;;;4.30;99.90;;;;;;5074842;28;20187;-61
2021/11/09 07:40:40;;;;;;;5.78;3.97;;;4.30;99.90;;;;;;5087684;28;20187;-61
2021/11/09 07:43:09;;;;;;;8.93;4.10;;;4.40;99.90;;;;;;5071706;28;20620;-60
2021/11/09 07:45:37;;;;;;;10.10;4.72;;;4.50;99.90;;;;;;5071237;28;20266;-61
2021/11/09 07:48:06;;;;;;;6.75;4.30;;;4.50;99.90;;;;;;5070937;28;20187;-61
2021/11/09 07:50:36;;;;;;;6.93;4.32;;;4.60;99.90;;;;;;5085098;28;20187;-60
2021/11/09 07:53:05;;;;;;;5.20;3.63;;;4.60;99.90;;;;;;5072016;28;20184;-61
2021/11/09 07:55:39;;;;;;;10.05;5.63;;;4.60;99.90;;;;;;5087695;28;20230;-60
2021/11/09 07:58:15;;;;;;;5.35;3.90;;;4.70;99.90;;;;;;5072054;28;20191;-61
2021/11/09 08:00:48;;;;;;;9.85;4.18;;;4.70;99.90;;;;;;5072052;28;20196;-60
2021/11/09 08:03:19;;;;;;;8.07;5.78;;;4.80;99.90;;;;;;5071789;28;20220;-60
2021/11/09 08:06:09;;;;;;;6.72;3.80;;;4.90;99.90;;;;;;5071641;28;20601;-61
2021/11/09 08:08:41;;;;;;;6.13;4.38;;;4.90;99.90;;;;;;5070773;28;20778;-60
2021/11/09 08:11:09;;;;;;;5.32;3.55;;;5.10;99.90;;;;;;5072180;28;20239;-60
2021/11/09 08:13:38;;;;;;;5.20;4.07;;;5.20;99.90;;;;;;5071704;28;20616;-60
2021/11/09 08:16:06;;;;;;;7.78;3.97;;;5.20;99.90;;;;;;5072431;28;20261;-60
2021/11/09 08:18:34;;;;;;;6.90;4.00;;;5.30;99.90;;;;;;5080295;28;20219;-61
2021/11/09 08:21:05;;;;;;;4.38;3.50;;;5.40;99.90;;;;;;5060716;28;20226;-60
2021/11/09 08:23:34;;;;;;;6.95;4.57;;;5.60;99.90;;;;;;5059868;28;20239;-60
2021/11/09 08:26:04;;;;;;;6.72;4.75;;;5.70;99.90;;;;;;5078922;28;20270;-60
2021/11/09 08:28:33;;;;;;;9.48;4.35;;;5.80;99.90;;;;;;5083384;28;20272;-60
2021/11/09 08:31:07;;;;;;;11.75;4.68;;;6.00;99.90;;;;;;5092225;28;20561;-60
2021/11/09 08:33:36;;;;;;;10.18;4.30;;;6.10;99.90;;;;;;5069019;28;20211;-61
2021/11/09 08:36:08;;;;;;;7.65;4.10;;;6.30;99.90;;;;;;5071234;28;20226;-60
2021/11/09 08:38:39;;;;;;;11.85;4.22;;;6.40;99.90;;;;;;5071109;28;20215;-60
2021/11/09 08:41:09;;;;;;;7.80;3.80;;;6.60;99.90;;;;;;5064997;28;20593;-60
2021/11/09 08:43:39;;;;;;;11.27;3.35;;;6.80;99.90;;;;;;5055527;28;20287;-61
2021/11/09 08:46:15;;;;;;;9.00;4.53;;;6.90;99.90;;;;;;5091673;28;20222;-60
2021/11/09 08:48:46;;;;;;;6.70;3.35;;;7.00;99.90;;;;;;5085225;28;20222;-60
2021/11/09 08:51:16;;;;;;;10.25;4.90;;;7.10;99.90;;;;;;5050401;28;20209;-60
2021/11/09 08:53:51;;;;;;;9.07;3.53;;;7.20;99.90;;;;;;5051136;28;20217;-60
2021/11/09 08:56:47;;;;;;;9.15;3.35;;;7.40;99.90;;;;;;5058177;28;20303;-59
2021/11/09 09:04:51;;;;;;;11.20;4.28;;;7.70;99.90;;;;;;5064950;28;20213;-60
2021/11/09 09:07:21;;;;;;;6.10;4.03;;;7.80;99.90;;;;;;5051270;28;20193;-61
2021/11/09 09:09:50;;;;;;;8.13;3.83;;;7.90;99.90;;;;;;5051115;28;20229;-61
2021/11/09 09:12:18;;;;;;;11.57;4.13;;;8.00;99.90;;;;;;5051614;28;20856;-60
2021/11/09 09:14:46;;;;;;;4.85;3.03;;;8.10;99.90;;;;;;5054631;28;20222;-60
2021/11/09 09:17:14;;;;;;;7.15;3.58;;;8.20;99.90;;;;;;5053331;28;20196;-60
2021/11/09 09:19:49;;;;;;;8.35;3.33;;;8.40;99.90;;;;;;5050777;28;20697;-60
2021/11/09 09:22:23;;;;;;;5.70;3.30;;;8.30;99.90;;;;;;5071596;28;20213;-60
2021/11/09 09:25:07;;;;;;;5.57;2.90;;;8.40;99.90;;;;;;5070542;28;20572;-60
2021/11/09 09:27:51;;;;;;;6.40;2.90;;;8.60;99.90;;;;;;5053152;28;20445;-60
2021/11/09 09:30:45;;;;;;;9.60;3.27;;;8.70;99.90;;;;;;5054256;28;20563;-60
2021/11/09 09:33:30;;;;;;;6.57;2.70;;;8.80;99.90;;;;;;5076739;28;20797;-60
2021/11/09 09:52:56;;;;;;;10.07;3.23;;;9.40;99.90;;;;;;5054815;28;20640;-60
2021/11/09 09:55:37;;;;;;;6.37;2.70;;;9.50;99.90;;;;;;5052282;28;20466;-60
2021/11/09 09:58:07;;;;;;;6.80;3.10;;;9.60;99.90;;;;;;5054186;28;20431;-61
2021/11/09 10:00:37;;;;;;;6.97;3.87;;;9.70;99.90;;;;;;5054510;28;20484;-60
2021/11/09 10:03:06;;;;;;;7.47;3.20;;;9.70;99.90;;;;;;5064278;28;20430;-60
2021/11/09 10:05:37;;;;;;;6.97;3.33;;;9.70;99.90;;;;;;5064777;28;20493;-60
2021/11/09 10:08:11;;;;;;;7.57;5.40;;;9.70;99.90;;;;;;5074602;28;20843;-61
2021/11/09 10:10:41;;;;;;;3.87;2.87;;;9.70;99.90;;;;;;5089839;28;20432;-60
2021/11/09 10:13:13;;;;;;;7.33;2.77;;;9.90;99.90;;;;;;5052261;28;20446;-60
2021/11/09 10:15:46;;;;;;;7.50;4.10;;;9.90;99.90;;;;;;5063552;28;20442;-60
2021/11/09 10:18:17;;;;;;;4.70;3.03;;;9.90;99.90;;;;;;5073450;28;20418;-60
2021/11/09 10:20:47;;;;;;;6.80;2.73;;;10.00;99.90;;;;;;5077249;28;20882;-61
2021/11/09 10:23:19;;;;;;;5.23;2.80;;;10.00;99.90;;;;;;5075803;28;20441;-60
2021/11/09 10:25:51;;;;;;;3.80;2.53;;;10.10;99.90;;;;;;5085672;28;20462;-61
2021/11/09 10:28:21;;;;;;;4.60;3.07;;;10.10;99.90;;;;;;5053629;28;20489;-60
2021/11/09 10:30:54;;;;;;;3.43;2.43;;;10.10;99.90;;;;;;5054139;28;20408;-60
2021/11/09 10:33:24;;;;;;;9.50;3.27;;;10.20;99.90;;;;;;5053620;28;20461;-60
2021/11/09 10:35:53;;;;;;;7.13;2.93;;;10.10;99.90;;;;;;5053591;28;20463;-60
2021/11/09 10:38:29;;;;;;;4.30;2.57;;;10.20;99.90;;;;;;5052119;28;20439;-60
2021/11/09 10:41:00;;;;;;;3.90;2.37;;;10.30;99.90;;;;;;5053755;28;20855;-60
2021/11/09 10:43:30;;;;;;;3.77;2.23;;;10.30;99.50;;;;;;5053082;28;20501;-60
2021/11/09 10:46:00;;;;;;;5.40;2.73;;;10.30;99.90;;;;;;5077938;28;20471;-61
2021/11/09 10:48:28;;;;;;;7.83;3.10;;;10.50;98.50;;;;;;5092986;28;20453;-60
2021/11/09 10:50:59;;;;;;;4.60;2.17;;;10.70;98.30;;;;;;5077473;28;20439;-60
2021/11/09 10:53:32;;;;;;;5.93;2.80;;;10.80;98.30;;;;;;5053151;28;20451;-60
2021/11/09 10:56:14;;;;;;;9.83;3.17;;;10.80;98.00;;;;;;5053917;28;20469;-61
2021/11/09 10:59:13;;;;;;;4.63;2.93;;;10.90;97.10;;;;;;5054600;28;20479;-61
2021/11/09 11:04:33;;;;;;;3.40;2.50;;;11.00;97.00;;;;;;5054962;28;20477;-61
2021/11/09 11:07:03;;;;;;;4.73;1.70;;;10.90;95.10;;;;;;5053293;28;20447;-60
2021/11/09 11:09:32;;;;;;;3.10;2.53;;;10.90;96.30;;;;;;5034123;28;20468;-60
2021/11/09 11:12:09;;;;;;;3.07;2.10;;;11.00;94.00;;;;;;5052950;28;20439;-60
2021/11/09 11:14:40;;;;;;;5.13;2.93;;;11.10;93.20;;;;;;5052347;28;20535;-60
2021/11/09 11:17:11;;;;;;;4.33;2.03;;;11.10;93.90;;;;;;5053233;28;20423;-60
2021/11/09 11:19:43;;;;;;;4.70;2.03;;;11.10;92.30;;;;;;5057089;28;20563;-61
2021/11/09 11:22:13;;;;;;;4.73;2.53;;;11.20;92.90;;;;;;5091260;28;20426;-61
2021/11/09 11:24:43;;;;;;;4.47;2.13;;;11.20;93.70;;;;;;5092506;28;20473;-60
2021/11/09 11:27:14;;;;;;;5.77;3.60;;;11.10;93.40;;;;;;5062794;28;20439;-60
2021/11/09 11:29:43;;;;;;;4.97;2.60;;;11.20;92.90;;;;;;5052403;28;20829;-60
2021/11/09 11:32:15;;;;;;;4.87;2.30;;;11.30;93.30;;;;;;5051729;28;20485;-60
2021/11/09 11:34:43;;;;;;;5.10;2.47;;;11.20;94.70;;;;;;5052017;28;20472;-60
2021/11/09 11:37:13;;;;;;;6.27;2.83;;;11.30;96.50;;;;;;5052504;28;20439;-60
2021/11/09 11:39:43;;;;;;;7.27;2.90;;;11.60;93.80;;;;;;5052346;28;20540;-61
2021/11/09 11:42:16;;;;;;;5.90;3.30;;;11.60;93.30;;;;;;5052481;28;20460;-60
2021/11/09 11:44:54;;;;;;;3.60;2.60;;;11.60;94.10;;;;;;5051863;28;20467;-61
2021/11/09 11:47:24;;;;;;;9.90;2.87;;;11.50;94.20;;;;;;5051269;28;20961;-60
2021/11/09 11:49:54;;;;;;;6.13;2.43;;;11.60;95.30;;;;;;5057940;28;21268;-60
2021/11/09 11:52:27;;;;;;;4.53;3.00;;;11.70;95.30;;;;;;5051874;28;20421;-60
2021/11/09 11:55:19;;;;;;;4.10;2.10;;;11.80;96.80;;;;;;5051220;28;20471;-60
2021/11/09 11:57:52;;;;;;;5.40;2.40;;;11.70;95.40;;;;;;5051078;28;20811;-60
2021/11/09 12:00:48;;;;;;;3.60;2.77;;;11.70;94.10;;;;;;5069944;28;20467;-60
2021/11/09 12:03:40;;;;;;;3.53;3.20;;;11.80;94.70;;;;;;5071823;28;20437;-61
2021/11/09 12:06:28;;;;;;;5.70;3.10;;;11.80;95.80;;;;;;5052879;28;20467;-61
2021/11/09 12:08:57;;;;;;;8.53;3.90;;;11.80;97.10;;;;;;5051481;28;20464;-61
2021/11/09 12:11:36;;;;;;;9.13;3.60;;;11.80;96.40;;;;;;5059650;28;20506;-60
2021/11/09 12:14:15;;;;;;;4.87;2.67;;;11.80;95.90;;;;;;5049806;28;21155;-60
2021/11/09 12:16:48;;;;;;;5.90;3.03;;;11.90;96.50;;;;;;5058606;28;20836;-60
2021/11/09 12:19:56;;;;;;;8.30;2.30;;;12.00;92.70;;;;;;5070920;28;20875;-60
2021/11/09 12:22:36;;;;;;;3.00;1.80;;;12.00;92.10;;;;;;5051646;28;20813;-60
2021/11/09 12:25:05;;;;;;;3.70;2.43;;;12.00;93.20;;;;;;5051108;28;20469;-60
2021/11/09 12:28:02;;;;;;;5.23;2.17;;;12.00;93.10;;;;;;5051361;28;20446;-60
2021/11/09 12:30:56;;;;;;;5.23;1.80;;;12.10;91.50;;;;;;5051165;28;20447;-60
2021/11/09 12:33:26;;;;;;;4.80;2.63;;;12.00;91.10;;;;;;5042377;28;20578;-60
2021/11/09 12:36:21;;;;;;;4.37;2.03;;;12.00;91.30;;;;;;5056231;28;20455;-61
2021/11/09 12:38:52;;;;;;;8.03;2.23;;;12.10;90.20;;;;;;5051525;28;20474;-61
2021/11/09 12:41:23;;;;;;;3.40;1.93;;;12.00;90.30;;;;;;5051278;28;20926;-60
2021/11/09 12:43:55;;;;;;;5.17;1.90;;;12.10;91.40;;;;;;5051248;28;20513;-60
2021/11/09 12:46:30;;;;;;;6.57;2.67;;;12.20;90.20;;;;;;5051624;28;20468;-60
2021/11/09 12:49:01;;;;;;;2.87;1.90;;;12.10;90.50;;;;;;5051333;28;20562;-61
2021/11/09 12:51:33;;;;;;;2.53;1.67;;;12.10;90.70;;;;;;5069769;28;20523;-61
2021/11/09 12:54:04;;;;;;;3.67;1.87;;;12.20;89.60;;;;;;5071035;28;20466;-60
2021/11/09 12:56:35;;;;;;;8.33;2.70;;;12.30;89.80;;;;;;5061637;28;20489;-61
2021/11/09 12:59:09;;;;;;;2.90;2.40;;;12.30;90.50;;;;;;5051146;28;20467;-61
2021/11/09 13:01:47;;;;;;;5.10;2.10;;;12.20;90.00;;;;;;5051790;28;20502;-60
2021/11/09 13:04:19;;;;;;;6.30;2.00;;;12.20;89.60;;;;;;5051797;28;20470;-60
2021/11/09 13:09:37;;;;;;;6.00;2.60;;;12.30;89.40;;;;;;5055755;28;20477;-60
2021/11/09 13:12:08;;;;;;;7.20;2.87;;;12.30;91.30;;;;;;5068432;28;20954;-60
2021/11/09 13:14:41;;;;;;;7.37;2.40;;;12.40;90.60;;;;;;5074620;28;20471;-61
2021/11/09 13:17:37;;;;;;;5.33;2.80;;;12.40;90.90;;;;;;5075134;28;20425;-61
2021/11/09 13:20:16;;;;;;;2.73;1.60;;;12.40;90.90;;;;;;5073743;28;20457;-61
2021/11/09 13:22:53;;;;;;;7.13;2.20;;;12.50;91.10;;;;;;5055394;28;20867;-60
2021/11/09 13:25:31;;;;;;;5.10;2.10;;;12.50;90.10;;;;;;5054344;28;21003;-60
2021/11/09 13:28:03;;;;;;;8.80;3.80;;;12.30;89.90;;;;;;5055182;28;20439;-60
2021/11/09 13:30:49;;;;;;;6.73;2.20;;;12.40;91.20;;;;;;5055138;28;20978;-61
2021/11/09 13:33:19;;;;;;;8.80;2.50;;;12.40;91.00;;;;;;5054528;28;20586;-61
2021/11/09 13:35:48;;;;;;;5.87;2.70;;;12.40;90.80;;;;;;5062387;28;20473;-60
2021/11/09 13:38:19;;;;;;;5.87;2.70;;;12.40;90.50;;;;;;5069923;28;20698;-61
2021/11/09 13:40:51;;;;;;;3.40;2.10;;;12.40;90.20;;;;;;5064701;28;20445;-60
2021/11/09 13:43:23;;;;;;;7.53;2.20;;;12.50;90.50;;;;;;5073728;28;20438;-62
2021/11/09 13:45:57;;;;;;;5.27;2.30;;;12.50;90.90;;;;;;5074432;28;20457;-62
2021/11/09 13:48:28;;;;;;;6.97;3.10;;;12.50;89.40;;;;;;5073100;28;20491;-63
2021/11/09 13:51:00;;;;;;;8.60;3.07;;;12.60;89.30;;;;;;5073648;28;20447;-63
2021/11/09 13:53:30;;;;;;;3.07;2.60;;;12.60;89.20;;;;;;5069268;28;20966;-63
2021/11/09 13:55:59;;;;;;;4.00;2.13;;;12.40;90.50;;;;;;5069543;28;20549;-63
2021/11/09 13:58:27;;;;;;;4.73;2.67;;;12.40;90.60;;;;;;5055113;28;20483;-62
2021/11/09 14:00:59;;;;;;;6.37;3.40;;;12.30;90.90;;;;;;5070117;28;20538;-62
2021/11/09 14:03:38;;;;;;;5.90;2.60;;;12.30;90.50;;;;;;5052938;28;20487;-63
2021/11/09 14:06:53;;;;;;;4.73;2.40;;;12.40;90.80;;;;;;5068436;28;20554;-62
2021/11/09 14:09:47;;;;;;;3.53;2.23;;;12.30;90.40;;;;;;5070348;28;20477;-62
2021/11/09 14:12:41;;;;;;;7.70;2.80;;;12.20;90.80;;;;;;5069078;28;20442;-62
2021/11/09 14:18:11;;;;;;;5.10;2.80;;;12.20;91.30;;;;;;5035745;28;20457;-62
2021/11/09 14:20:50;;;;;;;9.93;2.70;;;12.10;91.10;;;;;;5072897;28;20442;-62
2021/11/09 14:23:29;;;;;;;8.70;2.70;;;12.00;91.30;;;;;;5073761;28;20406;-62
2021/11/09 14:25:59;;;;;;;3.20;2.60;;;12.00;92.60;;;;;;5072524;28;20452;-63
2021/11/09 14:28:35;;;;;;;5.70;2.60;;;12.00;92.30;;;;;;5073973;28;20459;-64
2021/11/09 14:31:16;;;;;;;6.20;2.50;;;12.00;91.60;;;;;;5075497;28;20457;-61
2021/11/09 14:33:47;;;;;;;7.87;3.00;;;11.90;92.10;;;;;;5069384;28;20473;-61
2021/11/09 14:36:39;;;;;;;9.73;3.90;;;11.90;92.30;;;;;;5053705;28;20493;-61
2021/11/09 14:39:11;;;;;;;6.50;3.20;;;11.80;94.10;;;;;;5067682;28;20619;-60
2021/11/09 14:42:08;;;;;;;10.20;4.10;;;11.80;95.70;;;;;;5063177;28;20900;-61
2021/11/09 14:45:02;;;;;;;6.83;4.50;;;11.70;96.10;;;;;;5051725;28;20546;-60
2021/11/09 14:47:35;;;;;;;11.77;4.37;;;11.60;96.90;;;;;;5053691;28;20471;-61
2021/11/09 14:50:08;;;;;;;6.93;3.30;;;11.50;97.10;;;;;;5051345;28;20833;-60
2021/11/09 14:52:39;;;;;;;6.10;3.70;;;11.40;96.60;;;;;;5053521;28;20525;-60
2021/11/09 14:55:19;;;;;;;6.57;3.10;;;11.40;97.10;;;;;;5051325;28;20468;-60
2021/11/09 14:57:48;;;;;;;6.83;3.43;;;11.30;97.80;;;;;;5054709;28;20795;-60
2021/11/09 15:00:19;;;;;;;6.67;3.17;;;11.30;97.70;;;;;;5070506;28;20472;-60
2021/11/09 15:02:58;;;;;;;6.60;3.80;;;11.30;97.90;;;;;;5069556;28;20450;-60